sensor_id;sensor_type;location;lat;lon;timestamp;temperature;humidity
17774;DHT22;9011;33.236;-97.118;2023-02-10T00:02:08;13.90;99.90
17774;DHT22;9011;33.236;-97.118;2023-02-10T00:04:37;13.80;99.90
17774;DHT22;9011;33.236;-97.118;2023-02-10T00:07:05;13.70;99.90
17774;DHT22;9011;33.236;-97.118;2023-02-10T00:09:34;13.60;99.90
17774;DHT22;9011;33.236;-97.118;2023-02-10T00:12:02;13.60;99.90
17774;DHT22;9011;33.236;-97.118;2023-02-10T00:14:35;13.50;99.90
17774;DHT22;9011;33.236;-97.118;2023-02-10T00:17:04;13.30;99.90
17774;DHT22;9011;33.236;-97.118;2023-02-10T00:19:33;13.20;99.90
17774;DHT22;9011;33.236;-97.118;2023-02-10T00:22:02;13.20;99.90
17774;DHT22;9011;33.236;-97.118;2023-02-10T00:24:31;13.00;99.90
17774;DHT22;9011;33.236;-97.118;2023-02-10T00:26:59;12.80;99.90
17774;DHT22;9011;33.236;-97.118;2023-02-10T00:29:28;12.80;99.90
17774;DHT22;9011;33.236;-97.118;2023-02-10T00:31:59;12.90;99.90
17774;DHT22;9011;33.236;-97.118;2023-02-10T00:34:28;12.80;99.90
17774;DHT22;9011;33.236;-97.118;2023-02-10T00:36:57;12.70;99.90
17774;DHT22;9011;33.236;-97.118;2023-02-10T00:39:25;12.60;99.90
17774;DHT22;9011;33.236;-97.118;2023-02-10T00:41:54;12.60;99.90
17774;DHT22;9011;33.236;-97.118;2023-02-10T00:44:23;12.50;99.90
17774;DHT22;9011;33.236;-97.118;2023-02-10T00:46:51;12.40;99.90
17774;DHT22;9011;33.236;-97.118;2023-02-10T00:49:21;12.40;99.90
17774;DHT22;9011;33.236;-97.118;2023-02-10T00:51:50;12.30;99.90
17774;DHT22;9011;33.236;-97.118;2023-02-10T00:54:19;12.30;99.90
17774;DHT22;9011;33.236;-97.118;2023-02-10T00:56:47;12.10;99.90
17774;DHT22;9011;33.236;-97.118;2023-02-10T00:59:17;12.10;99.90
17774;DHT22;9011;33.236;-97.118;2023-02-10T01:01:46;12.10;99.90
17774;DHT22;9011;33.236;-97.118;2023-02-10T01:04:15;12.00;99.90
17774;DHT22;9011;33.236;-97.118;2023-02-10T01:06:45;12.00;99.90
17774;DHT22;9011;33.236;-97.118;2023-02-10T01:09:14;11.90;99.90
17774;DHT22;9011;33.236;-97.118;2023-02-10T01:11:44;11.80;99.90
17774;DHT22;9011;33.236;-97.118;2023-02-10T01:14:13;11.80;99.90
17774;DHT22;9011;33.236;-97.118;2023-02-10T01:16:42;11.80;99.90
17774;DHT22;9011;33.236;-97.118;2023-02-10T01:19:11;11.80;99.90
17774;DHT22;9011;33.236;-97.118;2023-02-10T01:21:41;11.70;99.90
17774;DHT22;9011;33.236;-97.118;2023-02-10T01:24:11;11.60;99.90
17774;DHT22;9011;33.236;-97.118;2023-02-10T01:26:40;11.60;99.90
17774;DHT22;9011;33.236;-97.118;2023-02-10T01:29:09;11.60;99.90
17774;DHT22;9011;33.236;-97.118;2023-02-10T01:31:37;11.50;99.90
17774;DHT22;9011;33.236;-97.118;2023-02-10T01:34:06;11.50;99.90
17774;DHT22;9011;33.236;-97.118;2023-02-10T01:36:35;11.50;99.90
17774;DHT22;9011;33.236;-97.118;2023-02-10T01:39:04;11.50;99.90
17774;DHT22;9011;33.236;-97.118;2023-02-10T01:41:34;11.40;99.90
17774;DHT22;9011;33.236;-97.118;2023-02-10T01:44:04;11.40;99.90
17774;DHT22;9011;33.236;-97.118;2023-02-10T01:46:34;11.30;99.90
17774;DHT22;9011;33.236;-97.118;2023-02-10T01:49:06;11.30;99.90
17774;DHT22;9011;33.236;-97.118;2023-02-10T01:51:41;11.20;99.90
17774;DHT22;9011;33.236;-97.118;2023-02-10T01:54:14;11.20;99.90
17774;DHT22;9011;33.236;-97.118;2023-02-10T01:56:46;11.10;99.90
17774;DHT22;9011;33.236;-97.118;2023-02-10T01:59:15;11.10;99.90
17774;DHT22;9011;33.236;-97.118;2023-02-10T02:01:45;11.10;99.90
17774;DHT22;9011;33.236;-97.118;2023-02-10T02:04:14;11.10;99.90
17774;DHT22;9011;33.236;-97.118;2023-02-10T02:06:43;11.00;99.90
17774;DHT22;9011;33.236;-97.118;2023-02-10T02:09:12;10.90;99.90
17774;DHT22;9011;33.236;-97.118;2023-02-10T02:11:48;10.90;99.90
17774;DHT22;9011;33.236;-97.118;2023-02-10T02:14:29;10.90;99.90
17774;DHT22;9011;33.236;-97.118;2023-02-10T02:17:07;10.70;99.90
17774;DHT22;9011;33.236;-97.118;2023-02-10T02:20:06;10.60;99.90
17774;DHT22;9011;33.236;-97.118;2023-02-10T02:23:10;10.60;99.90
17774;DHT22;9011;33.236;-97.118;2023-02-10T02:26:09;10.50;99.90
17774;DHT22;9011;33.236;-97.118;2023-02-10T02:28:53;10.40;99.90
17774;DHT22;9011;33.236;-97.118;2023-02-10T02:31:59;10.40;99.90
17774;DHT22;9011;33.236;-97.118;2023-02-10T02:34:36;10.40;99.90
17774;DHT22;9011;33.236;-97.118;2023-02-10T02:37:11;10.30;99.90
17774;DHT22;9011;33.236;-97.118;2023-02-10T02:39:41;10.30;99.90
17774;DHT22;9011;33.236;-97.118;2023-02-10T02:42:17;10.30;99.90
17774;DHT22;9011;33.236;-97.118;2023-02-10T02:44:49;10.40;99.90
17774;DHT22;9011;33.236;-97.118;2023-02-10T02:47:32;10.30;99.90
17774;DHT22;9011;33.236;-97.118;2023-02-10T02:50:16;10.30;99.90
17774;DHT22;9011;33.236;-97.118;2023-02-10T02:53:08;10.30;99.90
17774;DHT22;9011;33.236;-97.118;2023-02-10T02:55:48;10.30;99.90
17774;DHT22;9011;33.236;-97.118;2023-02-10T02:58:33;10.10;99.90
17774;DHT22;9011;33.236;-97.118;2023-02-10T03:01:16;10.10;99.90
17774;DHT22;9011;33.236;-97.118;2023-02-10T03:03:52;10.10;99.90
17774;DHT22;9011;33.236;-97.118;2023-02-10T03:06:21;10.10;99.90
17774;DHT22;9011;33.236;-97.118;2023-02-10T03:08:51;10.10;99.90
17774;DHT22;9011;33.236;-97.118;2023-02-10T03:11:20;9.90;99.90
17774;DHT22;9011;33.236;-97.118;2023-02-10T03:13:48;9.90;99.90
17774;DHT22;9011;33.236;-97.118;2023-02-10T03:16:17;9.90;99.90
17774;DHT22;9011;33.236;-97.118;2023-02-10T03:18:46;9.90;99.90
17774;DHT22;9011;33.236;-97.118;2023-02-10T03:21:16;9.80;99.90
17774;DHT22;9011;33.236;-97.118;2023-02-10T03:23:45;9.70;99.90
17774;DHT22;9011;33.236;-97.118;2023-02-10T03:26:14;9.70;99.90
17774;DHT22;9011;33.236;-97.118;2023-02-10T03:28:42;9.70;99.90
17774;DHT22;9011;33.236;-97.118;2023-02-10T03:31:12;9.60;99.90
17774;DHT22;9011;33.236;-97.118;2023-02-10T03:33:40;9.60;99.90
17774;DHT22;9011;33.236;-97.118;2023-02-10T03:36:09;9.50;99.90
17774;DHT22;9011;33.236;-97.118;2023-02-10T03:38:40;9.40;99.90
17774;DHT22;9011;33.236;-97.118;2023-02-10T03:41:09;9.40;99.90
17774;DHT22;9011;33.236;-97.118;2023-02-10T03:43:37;9.40;99.90
17774;DHT22;9011;33.236;-97.118;2023-02-10T03:46:08;9.40;99.90
17774;DHT22;9011;33.236;-97.118;2023-02-10T03:48:39;9.30;99.90
17774;DHT22;9011;33.236;-97.118;2023-02-10T03:51:08;9.20;99.90
17774;DHT22;9011;33.236;-97.118;2023-02-10T03:53:39;9.10;99.90
17774;DHT22;9011;33.236;-97.118;2023-02-10T03:56:08;9.10;99.90
17774;DHT22;9011;33.236;-97.118;2023-02-10T03:58:37;9.10;99.90
17774;DHT22;9011;33.236;-97.118;2023-02-10T04:01:10;9.10;99.90
17774;DHT22;9011;33.236;-97.118;2023-02-10T04:03:39;9.10;99.90
17774;DHT22;9011;33.236;-97.118;2023-02-10T04:06:09;8.90;99.90
17774;DHT22;9011;33.236;-97.118;2023-02-10T04:08:39;9.00;99.90
17774;DHT22;9011;33.236;-97.118;2023-02-10T04:11:10;9.00;99.90
17774;DHT22;9011;33.236;-97.118;2023-02-10T04:13:40;8.90;99.90
17774;DHT22;9011;33.236;-97.118;2023-02-10T04:16:11;8.90;99.90
17774;DHT22;9011;33.236;-97.118;2023-02-10T04:18:41;8.90;99.90
17774;DHT22;9011;33.236;-97.118;2023-02-10T04:21:11;8.80;99.90
17774;DHT22;9011;33.236;-97.118;2023-02-10T04:23:42;8.80;99.90
17774;DHT22;9011;33.236;-97.118;2023-02-10T04:26:10;8.80;99.90
17774;DHT22;9011;33.236;-97.118;2023-02-10T04:28:39;8.80;99.90
17774;DHT22;9011;33.236;-97.118;2023-02-10T04:31:08;8.80;99.90
17774;DHT22;9011;33.236;-97.118;2023-02-10T04:33:37;8.80;99.90
17774;DHT22;9011;33.236;-97.118;2023-02-10T04:36:07;8.90;99.90
17774;DHT22;9011;33.236;-97.118;2023-02-10T04:38:35;8.90;99.90
17774;DHT22;9011;33.236;-97.118;2023-02-10T04:41:06;8.90;99.90
17774;DHT22;9011;33.236;-97.118;2023-02-10T04:43:35;8.90;99.90
17774;DHT22;9011;33.236;-97.118;2023-02-10T04:46:03;8.90;99.90
17774;DHT22;9011;33.236;-97.118;2023-02-10T04:48:32;8.90;99.90
17774;DHT22;9011;33.236;-97.118;2023-02-10T04:51:05;9.00;99.90
17774;DHT22;9011;33.236;-97.118;2023-02-10T04:53:33;9.00;99.90
17774;DHT22;9011;33.236;-97.118;2023-02-10T04:56:02;9.00;99.90
17774;DHT22;9011;33.236;-97.118;2023-02-10T04:58:33;8.90;99.90
17774;DHT22;9011;33.236;-97.118;2023-02-10T05:01:02;8.90;99.90
17774;DHT22;9011;33.236;-97.118;2023-02-10T05:03:31;9.00;99.90
17774;DHT22;9011;33.236;-97.118;2023-02-10T05:06:04;8.90;99.90
17774;DHT22;9011;33.236;-97.118;2023-02-10T05:08:33;8.90;99.90
17774;DHT22;9011;33.236;-97.118;2023-02-10T05:11:07;9.00;99.90
17774;DHT22;9011;33.236;-97.118;2023-02-10T05:13:38;9.00;99.90
17774;DHT22;9011;33.236;-97.118;2023-02-10T05:16:07;9.00;99.90
17774;DHT22;9011;33.236;-97.118;2023-02-10T05:18:37;9.00;99.90
17774;DHT22;9011;33.236;-97.118;2023-02-10T05:21:06;9.00;99.90
17774;DHT22;9011;33.236;-97.118;2023-02-10T05:23:35;9.10;99.90
17774;DHT22;9011;33.236;-97.118;2023-02-10T05:26:04;9.00;99.90
17774;DHT22;9011;33.236;-97.118;2023-02-10T05:28:33;9.00;99.90
17774;DHT22;9011;33.236;-97.118;2023-02-10T05:31:03;9.00;99.90
17774;DHT22;9011;33.236;-97.118;2023-02-10T05:33:33;9.10;99.90
17774;DHT22;9011;33.236;-97.118;2023-02-10T05:36:02;9.10;99.90
17774;DHT22;9011;33.236;-97.118;2023-02-10T05:38:31;9.10;99.90
17774;DHT22;9011;33.236;-97.118;2023-02-10T05:41:00;9.10;99.90
17774;DHT22;9011;33.236;-97.118;2023-02-10T05:43:29;9.10;99.90
17774;DHT22;9011;33.236;-97.118;2023-02-10T05:45:57;9.10;99.90
17774;DHT22;9011;33.236;-97.118;2023-02-10T05:48:30;9.10;99.90
17774;DHT22;9011;33.236;-97.118;2023-02-10T05:50:59;9.10;99.90
17774;DHT22;9011;33.236;-97.118;2023-02-10T05:53:27;9.10;99.90
17774;DHT22;9011;33.236;-97.118;2023-02-10T05:55:56;9.10;99.90
17774;DHT22;9011;33.236;-97.118;2023-02-10T05:58:24;9.10;99.90
17774;DHT22;9011;33.236;-97.118;2023-02-10T06:00:54;9.00;99.90
17774;DHT22;9011;33.236;-97.118;2023-02-10T06:03:23;9.10;99.90
17774;DHT22;9011;33.236;-97.118;2023-02-10T06:05:53;9.10;99.90
17774;DHT22;9011;33.236;-97.118;2023-02-10T06:08:22;9.10;99.90
17774;DHT22;9011;33.236;-97.118;2023-02-10T06:10:50;9.10;99.90
17774;DHT22;9011;33.236;-97.118;2023-02-10T06:13:19;9.10;99.90
17774;DHT22;9011;33.236;-97.118;2023-02-10T06:15:48;9.10;99.90
17774;DHT22;9011;33.236;-97.118;2023-02-10T06:18:17;9.10;99.90
17774;DHT22;9011;33.236;-97.118;2023-02-10T06:20:46;9.10;99.90
17774;DHT22;9011;33.236;-97.118;2023-02-10T06:23:16;9.10;99.90
17774;DHT22;9011;33.236;-97.118;2023-02-10T06:25:46;9.10;99.90
17774;DHT22;9011;33.236;-97.118;2023-02-10T06:28:15;9.10;99.90
17774;DHT22;9011;33.236;-97.118;2023-02-10T06:30:43;9.10;99.90
17774;DHT22;9011;33.236;-97.118;2023-02-10T06:33:12;9.00;99.90
17774;DHT22;9011;33.236;-97.118;2023-02-10T06:35:40;9.00;99.90
17774;DHT22;9011;33.236;-97.118;2023-02-10T06:38:09;9.10;99.90
17774;DHT22;9011;33.236;-97.118;2023-02-10T06:40:39;9.10;99.90
17774;DHT22;9011;33.236;-97.118;2023-02-10T06:43:09;9.00;99.90
17774;DHT22;9011;33.236;-97.118;2023-02-10T06:45:37;9.00;99.90
17774;DHT22;9011;33.236;-97.118;2023-02-10T06:48:06;9.00;99.90
17774;DHT22;9011;33.236;-97.118;2023-02-10T06:50:34;9.00;99.90
17774;DHT22;9011;33.236;-97.118;2023-02-10T06:53:04;8.90;99.90
17774;DHT22;9011;33.236;-97.118;2023-02-10T06:55:33;8.90;99.90
17774;DHT22;9011;33.236;-97.118;2023-02-10T06:58:03;8.80;99.90
17774;DHT22;9011;33.236;-97.118;2023-02-10T07:00:32;8.80;99.90
17774;DHT22;9011;33.236;-97.118;2023-02-10T07:03:01;8.70;99.90
17774;DHT22;9011;33.236;-97.118;2023-02-10T07:05:29;8.70;99.90
17774;DHT22;9011;33.236;-97.118;2023-02-10T07:08:02;8.60;99.90
17774;DHT22;9011;33.236;-97.118;2023-02-10T07:10:30;8.50;99.90
17774;DHT22;9011;33.236;-97.118;2023-02-10T07:12:59;8.50;99.90
17774;DHT22;9011;33.236;-97.118;2023-02-10T07:15:29;8.40;99.90
17774;DHT22;9011;33.236;-97.118;2023-02-10T07:17:58;8.30;99.90
17774;DHT22;9011;33.236;-97.118;2023-02-10T07:20:26;8.30;99.90
17774;DHT22;9011;33.236;-97.118;2023-02-10T07:22:55;8.20;99.90
17774;DHT22;9011;33.236;-97.118;2023-02-10T07:25:24;8.10;99.90
17774;DHT22;9011;33.236;-97.118;2023-02-10T07:27:52;8.10;99.90
17774;DHT22;9011;33.236;-97.118;2023-02-10T07:30:21;8.10;99.90
17774;DHT22;9011;33.236;-97.118;2023-02-10T07:32:52;8.00;99.90
17774;DHT22;9011;33.236;-97.118;2023-02-10T07:35:21;8.00;99.90
17774;DHT22;9011;33.236;-97.118;2023-02-10T07:37:49;7.90;99.90
17774;DHT22;9011;33.236;-97.118;2023-02-10T07:40:18;7.90;99.90
17774;DHT22;9011;33.236;-97.118;2023-02-10T07:42:48;7.80;99.90
17774;DHT22;9011;33.236;-97.118;2023-02-10T07:45:16;7.70;99.90
17774;DHT22;9011;33.236;-97.118;2023-02-10T07:47:45;7.70;99.90
17774;DHT22;9011;33.236;-97.118;2023-02-10T07:50:16;7.70;99.90
17774;DHT22;9011;33.236;-97.118;2023-02-10T07:52:44;7.70;99.90
17774;DHT22;9011;33.236;-97.118;2023-02-10T07:55:14;7.60;99.90
17774;DHT22;9011;33.236;-97.118;2023-02-10T07:57:43;7.60;99.90
17774;DHT22;9011;33.236;-97.118;2023-02-10T08:00:12;7.60;99.90
17774;DHT22;9011;33.236;-97.118;2023-02-10T08:02:41;7.50;99.90
17774;DHT22;9011;33.236;-97.118;2023-02-10T08:05:10;7.50;99.90
17774;DHT22;9011;33.236;-97.118;2023-02-10T08:07:40;7.50;99.90
17774;DHT22;9011;33.236;-97.118;2023-02-10T08:10:09;7.50;99.90
17774;DHT22;9011;33.236;-97.118;2023-02-10T08:12:37;7.40;99.90
17774;DHT22;9011;33.236;-97.118;2023-02-10T08:15:07;7.30;99.90
17774;DHT22;9011;33.236;-97.118;2023-02-10T08:17:35;7.30;99.90
17774;DHT22;9011;33.236;-97.118;2023-02-10T08:20:05;7.30;99.90
17774;DHT22;9011;33.236;-97.118;2023-02-10T08:22:34;7.30;99.90
17774;DHT22;9011;33.236;-97.118;2023-02-10T08:25:05;7.20;99.90
17774;DHT22;9011;33.236;-97.118;2023-02-10T08:27:34;7.20;99.90
17774;DHT22;9011;33.236;-97.118;2023-02-10T08:30:03;7.10;99.90
17774;DHT22;9011;33.236;-97.118;2023-02-10T08:32:32;7.20;99.90
17774;DHT22;9011;33.236;-97.118;2023-02-10T08:35:00;7.10;99.90
17774;DHT22;9011;33.236;-97.118;2023-02-10T08:37:29;7.10;99.90
17774;DHT22;9011;33.236;-97.118;2023-02-10T08:39:58;7.10;99.90
17774;DHT22;9011;33.236;-97.118;2023-02-10T08:42:28;7.10;99.90
17774;DHT22;9011;33.236;-97.118;2023-02-10T08:44:57;7.10;99.90
17774;DHT22;9011;33.236;-97.118;2023-02-10T08:47:26;7.10;99.90
17774;DHT22;9011;33.236;-97.118;2023-02-10T08:49:54;7.10;99.90
17774;DHT22;9011;33.236;-97.118;2023-02-10T08:52:23;7.10;99.90
17774;DHT22;9011;33.236;-97.118;2023-02-10T08:54:52;7.10;99.90
17774;DHT22;9011;33.236;-97.118;2023-02-10T08:57:21;7.00;99.90
17774;DHT22;9011;33.236;-97.118;2023-02-10T08:59:51;7.10;99.90
17774;DHT22;9011;33.236;-97.118;2023-02-10T09:02:20;7.00;99.90
17774;DHT22;9011;33.236;-97.118;2023-02-10T09:04:48;7.00;99.90
17774;DHT22;9011;33.236;-97.118;2023-02-10T09:07:17;7.00;99.90
17774;DHT22;9011;33.236;-97.118;2023-02-10T09:09:45;7.00;99.90
17774;DHT22;9011;33.236;-97.118;2023-02-10T09:12:14;7.00;99.90
17774;DHT22;9011;33.236;-97.118;2023-02-10T09:14:43;7.00;99.90
17774;DHT22;9011;33.236;-97.118;2023-02-10T09:17:13;7.00;99.90
17774;DHT22;9011;33.236;-97.118;2023-02-10T09:19:42;7.00;99.90
17774;DHT22;9011;33.236;-97.118;2023-02-10T09:22:10;7.00;99.90
17774;DHT22;9011;33.236;-97.118;2023-02-10T09:24:39;7.00;99.90
17774;DHT22;9011;33.236;-97.118;2023-02-10T09:27:14;6.90;99.90
17774;DHT22;9011;33.236;-97.118;2023-02-10T09:29:43;6.90;99.90
17774;DHT22;9011;33.236;-97.118;2023-02-10T09:32:14;6.90;99.90
17774;DHT22;9011;33.236;-97.118;2023-02-10T09:34:42;6.90;99.90
17774;DHT22;9011;33.236;-97.118;2023-02-10T09:37:11;6.90;99.90
17774;DHT22;9011;33.236;-97.118;2023-02-10T09:39:40;6.90;99.90
17774;DHT22;9011;33.236;-97.118;2023-02-10T09:42:13;6.90;99.90
17774;DHT22;9011;33.236;-97.118;2023-02-10T09:44:47;6.90;99.90
17774;DHT22;9011;33.236;-97.118;2023-02-10T09:47:36;6.90;99.90
17774;DHT22;9011;33.236;-97.118;2023-02-10T09:53:08;6.70;99.90
17774;DHT22;9011;33.236;-97.118;2023-02-10T09:55:40;6.70;99.90
17774;DHT22;9011;33.236;-97.118;2023-02-10T09:58:17;6.70;99.90
17774;DHT22;9011;33.236;-97.118;2023-02-10T10:00:48;6.80;99.90
17774;DHT22;9011;33.236;-97.118;2023-02-10T10:03:23;6.80;99.90
17774;DHT22;9011;33.236;-97.118;2023-02-10T10:06:00;6.80;99.90
17774;DHT22;9011;33.236;-97.118;2023-02-10T10:08:38;6.70;99.90
17774;DHT22;9011;33.236;-97.118;2023-02-10T10:11:27;6.70;99.90
17774;DHT22;9011;33.236;-97.118;2023-02-10T10:14:00;6.70;99.90
17774;DHT22;9011;33.236;-97.118;2023-02-10T10:16:53;6.70;99.90
17774;DHT22;9011;33.236;-97.118;2023-02-10T10:19:32;6.70;99.90
17774;DHT22;9011;33.236;-97.118;2023-02-10T10:22:23;6.70;99.90
17774;DHT22;9011;33.236;-97.118;2023-02-10T10:27:55;6.70;99.90
17774;DHT22;9011;33.236;-97.118;2023-02-10T10:30:34;6.60;99.90
17774;DHT22;9011;33.236;-97.118;2023-02-10T10:33:19;6.70;99.90
17774;DHT22;9011;33.236;-97.118;2023-02-10T10:35:51;6.60;99.90
17774;DHT22;9011;33.236;-97.118;2023-02-10T10:38:22;6.60;99.90
17774;DHT22;9011;33.236;-97.118;2023-02-10T10:40:53;6.60;99.90
17774;DHT22;9011;33.236;-97.118;2023-02-10T10:43:24;6.60;99.90
17774;DHT22;9011;33.236;-97.118;2023-02-10T10:45:57;6.60;99.90
17774;DHT22;9011;33.236;-97.118;2023-02-10T10:48:30;6.50;99.90
17774;DHT22;9011;33.236;-97.118;2023-02-10T10:51:03;6.50;99.90
17774;DHT22;9011;33.236;-97.118;2023-02-10T10:53:37;6.50;99.90
17774;DHT22;9011;33.236;-97.118;2023-02-10T10:56:16;6.50;99.90
17774;DHT22;9011;33.236;-97.118;2023-02-10T10:58:47;6.40;99.90
17774;DHT22;9011;33.236;-97.118;2023-02-10T11:01:29;6.40;99.90
17774;DHT22;9011;33.236;-97.118;2023-02-10T11:04:06;6.40;99.90
17774;DHT22;9011;33.236;-97.118;2023-02-10T11:06:37;6.40;99.90
17774;DHT22;9011;33.236;-97.118;2023-02-10T11:09:20;6.40;99.90
17774;DHT22;9011;33.236;-97.118;2023-02-10T11:11:50;6.30;99.90
17774;DHT22;9011;33.236;-97.118;2023-02-10T11:14:23;6.40;99.90
17774;DHT22;9011;33.236;-97.118;2023-02-10T11:16:54;6.40;99.90
17774;DHT22;9011;33.236;-97.118;2023-02-10T11:19:29;6.40;99.90
17774;DHT22;9011;33.236;-97.118;2023-02-10T11:21:59;6.30;99.90
17774;DHT22;9011;33.236;-97.118;2023-02-10T11:24:30;6.30;99.90
17774;DHT22;9011;33.236;-97.118;2023-02-10T11:27:00;6.30;99.90
17774;DHT22;9011;33.236;-97.118;2023-02-10T11:29:31;6.20;99.90
17774;DHT22;9011;33.236;-97.118;2023-02-10T11:32:01;6.20;99.90
17774;DHT22;9011;33.236;-97.118;2023-02-10T11:34:31;6.20;99.90
17774;DHT22;9011;33.236;-97.118;2023-02-10T11:37:16;6.20;99.90
17774;DHT22;9011;33.236;-97.118;2023-02-10T11:39:47;6.20;99.90
17774;DHT22;9011;33.236;-97.118;2023-02-10T11:42:18;6.20;99.90
17774;DHT22;9011;33.236;-97.118;2023-02-10T11:44:54;6.20;99.90
17774;DHT22;9011;33.236;-97.118;2023-02-10T11:47:24;6.20;99.90
17774;DHT22;9011;33.236;-97.118;2023-02-10T11:49:56;6.20;99.90
17774;DHT22;9011;33.236;-97.118;2023-02-10T11:52:30;6.20;99.90
17774;DHT22;9011;33.236;-97.118;2023-02-10T11:55:00;6.10;99.90
17774;DHT22;9011;33.236;-97.118;2023-02-10T11:57:36;6.10;99.90
17774;DHT22;9011;33.236;-97.118;2023-02-10T12:00:27;6.10;99.90
17774;DHT22;9011;33.236;-97.118;2023-02-10T12:06:05;6.10;99.90
17774;DHT22;9011;33.236;-97.118;2023-02-10T12:08:44;6.10;99.90
17774;DHT22;9011;33.236;-97.118;2023-02-10T12:11:17;6.10;99.90
17774;DHT22;9011;33.236;-97.118;2023-02-10T12:13:56;6.10;99.90
17774;DHT22;9011;33.236;-97.118;2023-02-10T12:16:35;6.10;99.90
17774;DHT22;9011;33.236;-97.118;2023-02-10T12:19:15;6.10;99.90
17774;DHT22;9011;33.236;-97.118;2023-02-10T12:21:58;6.10;99.90
17774;DHT22;9011;33.236;-97.118;2023-02-10T12:27:48;6.10;99.90
17774;DHT22;9011;33.236;-97.118;2023-02-10T12:30:27;6.00;99.90
17774;DHT22;9011;33.236;-97.118;2023-02-10T12:33:05;6.10;99.90
17774;DHT22;9011;33.236;-97.118;2023-02-10T12:35:46;6.10;99.90
17774;DHT22;9011;33.236;-97.118;2023-02-10T12:38:29;6.10;99.90
17774;DHT22;9011;33.236;-97.118;2023-02-10T12:41:09;6.10;99.90
17774;DHT22;9011;33.236;-97.118;2023-02-10T12:43:58;6.10;99.90
17774;DHT22;9011;33.236;-97.118;2023-02-10T12:46:35;6.10;99.90
17774;DHT22;9011;33.236;-97.118;2023-02-10T12:49:16;5.90;99.90
17774;DHT22;9011;33.236;-97.118;2023-02-10T12:52:00;6.00;99.90
17774;DHT22;9011;33.236;-97.118;2023-02-10T12:54:37;5.90;99.90
17774;DHT22;9011;33.236;-97.118;2023-02-10T12:57:12;5.90;99.90
17774;DHT22;9011;33.236;-97.118;2023-02-10T12:59:50;5.90;99.90
17774;DHT22;9011;33.236;-97.118;2023-02-10T13:02:22;5.80;99.90
17774;DHT22;9011;33.236;-97.118;2023-02-10T13:04:56;5.80;99.90
17774;DHT22;9011;33.236;-97.118;2023-02-10T13:07:36;5.80;99.90
17774;DHT22;9011;33.236;-97.118;2023-02-10T13:10:16;5.70;99.90
17774;DHT22;9011;33.236;-97.118;2023-02-10T13:12:48;5.70;99.90
17774;DHT22;9011;33.236;-97.118;2023-02-10T13:15:23;5.80;99.90
17774;DHT22;9011;33.236;-97.118;2023-02-10T13:17:53;5.70;99.90
17774;DHT22;9011;33.236;-97.118;2023-02-10T13:20:28;5.60;99.90
17774;DHT22;9011;33.236;-97.118;2023-02-10T13:23:06;5.70;99.90
17774;DHT22;9011;33.236;-97.118;2023-02-10T13:25:46;5.70;99.90
17774;DHT22;9011;33.236;-97.118;2023-02-10T13:28:24;5.70;99.90
17774;DHT22;9011;33.236;-97.118;2023-02-10T13:31:14;5.60;99.90
17774;DHT22;9011;33.236;-97.118;2023-02-10T13:33:52;5.60;99.90
17774;DHT22;9011;33.236;-97.118;2023-02-10T13:36:24;5.50;99.90
17774;DHT22;9011;33.236;-97.118;2023-02-10T13:38:59;5.50;99.90
17774;DHT22;9011;33.236;-97.118;2023-02-10T13:41:32;5.50;99.90
17774;DHT22;9011;33.236;-97.118;2023-02-10T13:44:22;5.50;99.90
17774;DHT22;9011;33.236;-97.118;2023-02-10T13:46:57;5.50;99.90
17774;DHT22;9011;33.236;-97.118;2023-02-10T13:49:26;5.40;99.90
17774;DHT22;9011;33.236;-97.118;2023-02-10T13:52:06;5.40;99.90
17774;DHT22;9011;33.236;-97.118;2023-02-10T13:54:36;5.40;99.90
17774;DHT22;9011;33.236;-97.118;2023-02-10T13:57:04;5.30;99.90
17774;DHT22;9011;33.236;-97.118;2023-02-10T13:59:38;5.40;99.90
17774;DHT22;9011;33.236;-97.118;2023-02-10T14:02:19;5.30;99.90
17774;DHT22;9011;33.236;-97.118;2023-02-10T14:04:53;5.30;99.90
17774;DHT22;9011;33.236;-97.118;2023-02-10T14:07:34;5.40;99.90
17774;DHT22;9011;33.236;-97.118;2023-02-10T14:10:32;5.40;99.90
17774;DHT22;9011;33.236;-97.118;2023-02-10T14:13:04;5.40;99.90
17774;DHT22;9011;33.236;-97.118;2023-02-10T14:15:34;5.40;99.90
17774;DHT22;9011;33.236;-97.118;2023-02-10T14:18:20;5.50;99.90
17774;DHT22;9011;33.236;-97.118;2023-02-10T14:20:55;5.40;99.90
17774;DHT22;9011;33.236;-97.118;2023-02-10T14:23:25;5.30;99.90
17774;DHT22;9011;33.236;-97.118;2023-02-10T14:25:58;5.20;99.90
17774;DHT22;9011;33.236;-97.118;2023-02-10T14:28:31;5.20;99.90
17774;DHT22;9011;33.236;-97.118;2023-02-10T14:31:05;5.10;99.90
17774;DHT22;9011;33.236;-97.118;2023-02-10T14:33:36;5.10;99.90
17774;DHT22;9011;33.236;-97.118;2023-02-10T14:36:14;5.00;99.90
17774;DHT22;9011;33.236;-97.118;2023-02-10T14:38:44;4.90;99.90
17774;DHT22;9011;33.236;-97.118;2023-02-10T14:41:17;4.90;99.90
17774;DHT22;9011;33.236;-97.118;2023-02-10T14:43:46;4.80;99.90
17774;DHT22;9011;33.236;-97.118;2023-02-10T14:46:20;4.70;99.90
17774;DHT22;9011;33.236;-97.118;2023-02-10T14:48:56;4.60;99.90
17774;DHT22;9011;33.236;-97.118;2023-02-10T14:51:27;4.60;99.90
17774;DHT22;9011;33.236;-97.118;2023-02-10T14:54:08;4.70;99.90
17774;DHT22;9011;33.236;-97.118;2023-02-10T14:56:37;4.70;99.90
17774;DHT22;9011;33.236;-97.118;2023-02-10T14:59:05;4.80;99.90
17774;DHT22;9011;33.236;-97.118;2023-02-10T15:01:46;5.00;99.90
17774;DHT22;9011;33.236;-97.118;2023-02-10T15:04:17;5.10;99.90
17774;DHT22;9011;33.236;-97.118;2023-02-10T15:06:46;5.20;99.90
17774;DHT22;9011;33.236;-97.118;2023-02-10T15:09:18;5.30;99.90
17774;DHT22;9011;33.236;-97.118;2023-02-10T15:11:49;5.40;99.90
17774;DHT22;9011;33.236;-97.118;2023-02-10T15:14:40;5.50;99.90
17774;DHT22;9011;33.236;-97.118;2023-02-10T15:17:14;5.50;99.90
17774;DHT22;9011;33.236;-97.118;2023-02-10T15:19:57;5.30;99.90
17774;DHT22;9011;33.236;-97.118;2023-02-10T15:22:34;5.30;99.90
17774;DHT22;9011;33.236;-97.118;2023-02-10T15:25:30;5.30;99.90
17774;DHT22;9011;33.236;-97.118;2023-02-10T15:28:17;5.20;99.90
17774;DHT22;9011;33.236;-97.118;2023-02-10T15:30:53;5.20;99.90
17774;DHT22;9011;33.236;-97.118;2023-02-10T15:33:24;5.10;99.90
17774;DHT22;9011;33.236;-97.118;2023-02-10T15:35:56;5.10;99.90
17774;DHT22;9011;33.236;-97.118;2023-02-10T15:38:26;5.30;99.90
17774;DHT22;9011;33.236;-97.118;2023-02-10T15:40:56;5.40;99.90
17774;DHT22;9011;33.236;-97.118;2023-02-10T15:43:27;5.30;99.90
17774;DHT22;9011;33.236;-97.118;2023-02-10T15:46:06;5.50;99.90
17774;DHT22;9011;33.236;-97.118;2023-02-10T15:48:35;5.40;99.90
17774;DHT22;9011;33.236;-97.118;2023-02-10T15:51:13;5.40;99.90
17774;DHT22;9011;33.236;-97.118;2023-02-10T15:53:46;5.50;99.90
17774;DHT22;9011;33.236;-97.118;2023-02-10T15:56:15;5.30;99.90
17774;DHT22;9011;33.236;-97.118;2023-02-10T15:58:43;5.40;99.90
17774;DHT22;9011;33.236;-97.118;2023-02-10T16:01:12;5.40;99.90
17774;DHT22;9011;33.236;-97.118;2023-02-10T16:03:40;5.50;99.90
17774;DHT22;9011;33.236;-97.118;2023-02-10T16:06:13;5.30;99.90
17774;DHT22;9011;33.236;-97.118;2023-02-10T16:08:42;5.40;99.90
17774;DHT22;9011;33.236;-97.118;2023-02-10T16:11:11;5.40;99.90
17774;DHT22;9011;33.236;-97.118;2023-02-10T16:13:40;5.40;99.90